Time,TemperatureF,DewpointF,PressureIn,WindDirection,WindDirectionDegrees,WindSpeedMPH,WindSpeedGustMPH,Humidity,HourlyPrecipIn,Conditions,Clouds,dailyrainin,SoftwareType,DateUTC
2014-12-20 00:01:00,52.9,52.8,28.91,NNW,338,0.0,2.0,100,-99.99,,,-99.99,WSDL version 470,2014-12-20 08:01:00,
2014-12-20 00:06:00,52.9,52.9,28.91,West,270,0.0,2.0,100,-99.99,,,-99.99,WSDL version 470,2014-12-20 08:06:00,
2014-12-20 00:11:00,52.9,52.9,28.91,NNW,330,0.7,2.2,100,-99.99,,,-99.99,WSDL version 470,2014-12-20 08:11:00,
2014-12-20 00:16:00,52.9,52.9,28.91,SE,135,0.0,2.2,100,-99.99,,,-99.99,WSDL version 470,2014-12-20 08:16:00,
2014-12-20 00:21:00,52.9,52.9,28.91,SE,124,0.0,1.6,100,-99.99,,,-99.99,WSDL version 470,2014-12-20 08:21:00,
2014-12-20 00:26:00,52.9,52.9,28.91,NNW,328,0.0,2.5,100,-99.99,,,-99.99,WSDL version 470,2014-12-20 08:26:00,
2014-12-20 00:31:00,52.9,52.9,28.91,WNW,293,0.7,2.7,100,-99.99,,,-99.99,WSDL version 470,2014-12-20 08:31:00,
2014-12-20 00:36:00,52.9,52.9,28.91,East,88,0.6,2.7,100,-99.99,,,-99.99,WSDL version 470,2014-12-20 08:36:00,
2014-12-20 00:41:00,52.9,52.9,28.91,SE,135,0.0,2.0,100,-99.99,,,-99.99,WSDL version 470,2014-12-20 08:41:00,
2014-12-20 00:46:00,52.9,52.9,28.91,NNW,328,0.0,1.3,100,-99.99,,,-99.99,WSDL version 470,2014-12-20 08:46:00,
2014-12-20 00:51:00,52.9,52.9,28.91,ESE,118,1.4,3.1,100,-99.99,,,-99.99,WSDL version 470,2014-12-20 08:51:00,
2014-12-20 00:56:00,52.9,52.9,28.91,North,352,0.9,4.0,100,-99.99,,,-99.99,WSDL version 470,2014-12-20 08:56:00,
2014-12-20 01:01:00,52.9,52.9,28.91,East,90,1.0,4.0,100,-99.99,,,-99.99,WSDL version 470,2014-12-20 09:01:00,
2014-12-20 01:06:00,52.9,52.9,28.91,WNW,295,0.0,3.6,100,-99.99,,,-99.99,WSDL version 470,2014-12-20 09:06:00,
2014-12-20 01:11:00,52.9,52.9,28.91,East,85,0.0,3.1,100,-99.99,,,-99.99,WSDL version 470,2014-12-20 09:11:00,
2014-12-20 01:16:00,52.9,52.9,28.91,South,180,0.0,2.0,100,-99.99,,,-99.99,WSDL version 470,2014-12-20 09:16:00,
2014-12-20 01:21:00,52.9,52.9,28.91,WNW,293,0.0,1.6,100,-99.99,,,-99.99,WSDL version 470,2014-12-20 09:21:00,
2014-12-20 01:26:00,52.9,52.9,28.88,NW,315,1.1,3.8,100,-99.99,,,-99.99,WSDL version 470,2014-12-20 09:26:00,
2014-12-20 01:31:00,52.9,52.8,28.88,NW,315,0.4,3.8,100,-99.99,,,-99.99,WSDL version 470,2014-12-20 09:31:00,
2014-12-20 01:36:00,52.8,52.8,28.88,West,270,0.4,2.5,100,-99.99,,,-99.99,WSDL version 470,2014-12-20 09:36:00,
2014-12-20 01:41:00,52.7,52.7,28.88,West,270,0.0,2.2,100,-99.99,,,-99.99,WSDL version 470,2014-12-20 09:41:00,
2014-12-20 01:46:00,52.9,52.9,28.88,WNW,293,0.0,1.1,100,-99.99,,,-99.99,WSDL version 470,2014-12-20 09:46:00,
2014-12-20 01:51:00,52.9,52.9,28.88,NW,304,0.0,1.1,100,-99.99,,,-99.99,WSDL version 470,2014-12-20 09:51:00,
2014-12-20 01:56:00,52.8,52.8,28.91,WSW,253,0.0,0.9,100,-99.99,,,-99.99,WSDL version 470,2014-12-20 09:56:00,
2014-12-20 02:01:00,52.9,52.9,28.91,West,270,0.0,1.1,100,-99.99,,,-99.99,WSDL version 470,2014-12-20 10:01:00,
2014-12-20 02:06:00,52.9,52.9,28.91,WNW,293,0.0,1.1,100,-99.99,,,-99.99,WSDL version 470,2014-12-20 10:06:00,
2014-12-20 02:11:00,52.9,52.9,28.88,South,178,0.0,0.9,100,-99.99,,,-99.99,WSDL version 470,2014-12-20 10:11:00,
2014-12-20 02:16:00,52.9,52.9,28.88,NW,321,0.0,1.6,100,-99.99,,,-99.99,WSDL version 470,2014-12-20 10:16:00,
2014-12-20 02:21:00,52.9,52.9,28.88,NNW,335,0.9,1.6,100,-99.99,,,-99.99,WSDL version 470,2014-12-20 10:21:00,
2014-12-20 02:26:00,52.9,52.9,28.91,NW,318,1.2,2.9,100,-99.99,,,-99.99,WSDL version 470,2014-12-20 10:26:00,
2014-12-20 02:31:00,52.9,52.9,28.91,NNW,330,0.1,2.9,100,-99.99,,,-99.99,WSDL version 470,2014-12-20 10:31:00,
2014-12-20 02:36:00,52.9,52.9,28.91,NNW,338,0.0,1.6,100,-99.99,,,-99.99,WSDL version 470,2014-12-20 10:36:00,
2014-12-20 02:41:00,52.9,52.9,28.91,NNE,28,0.0,1.6,100,-99.99,,,-99.99,WSDL version 470,2014-12-20 10:41:00,
2014-12-20 02:46:00,52.9,52.9,28.91,NW,323,0.6,2.5,100,0.45,,,0.45,WSDL version 470,2014-12-20 10:46:00,
2014-12-20 02:51:00,52.9,52.9,28.91,NW,309,0.0,2.5,100,0.45,,,0.45,WSDL version 470,2014-12-20 10:51:00,
2014-12-20 02:56:00,52.9,52.9,28.91,NW,313,0.5,2.9,100,-99.99,,,-99.99,WSDL version 470,2014-12-20 10:56:00,
2014-12-20 03:01:00,52.9,52.9,28.91,WNW,295,0.6,2.9,100,0.45,,,0.45,WSDL version 470,2014-12-20 11:01:00,
2014-12-20 03:06:00,52.9,52.9,28.91,North,8,0.0,2.2,100,0.45,,,0.45,WSDL version 470,2014-12-20 11:06:00,
2014-12-20 03:11:00,52.9,52.9,28.88,WNW,293,0.0,1.3,100,0.45,,,0.45,WSDL version 470,2014-12-20 11:11:00,
2014-12-20 03:16:00,52.9,52.9,28.88,West,260,0.0,0.0,100,0.45,,,0.45,WSDL version 470,2014-12-20 11:16:00,
2014-12-20 03:21:00,52.9,52.9,28.88,NW,309,0.0,0.0,100,0.45,,,0.45,WSDL version 470,2014-12-20 11:21:00,
2014-12-20 03:26:00,52.9,52.9,28.88,NNW,338,0.0,0.0,100,0.45,,,0.45,WSDL version 470,2014-12-20 11:26:00,
2014-12-20 03:31:00,52.9,52.9,28.88,ENE,68,0.0,0.0,100,0.45,,,0.45,WSDL version 470,2014-12-20 11:31:00,
2014-12-20 03:36:00,53.0,53.0,28.88,NNW,346,0.0,0.0,100,-99.99,,,-99.99,WSDL version 470,2014-12-20 11:36:00,
2014-12-20 03:41:00,53.1,53.1,28.91,North,8,0.7,2.5,100,-99.99,,,-99.99,WSDL version 470,2014-12-20 11:41:00,
2014-12-20 03:46:00,53.1,53.1,28.91,NNE,20,0.0,2.5,100,0.00,,,0.45,WSDL version 470,2014-12-20 11:46:00,
2014-12-20 03:51:00,53.1,53.1,28.91,North,8,0.0,1.6,100,0.00,,,0.45,WSDL version 470,2014-12-20 11:51:00,
2014-12-20 03:56:00,53.1,53.1,28.88,North,3,0.4,2.7,100,0.04,,,0.49,WSDL version 470,2014-12-20 11:56:00,
2014-12-20 04:01:00,53.1,53.1,28.88,WSW,253,0.0,2.7,100,0.04,,,0.49,WSDL version 470,2014-12-20 12:01:00,
2014-12-20 04:06:00,52.9,52.9,28.88,West,270,0.0,2.5,100,0.04,,,0.49,WSDL version 470,2014-12-20 12:06:00,
2014-12-20 04:11:00,52.9,52.9,28.88,West,270,0.0,0.0,100,0.04,,,0.49,WSDL version 470,2014-12-20 12:11:00,
2014-12-20 04:16:00,52.9,52.9,28.88,West,270,0.0,0.0,100,0.04,,,0.49,WSDL version 470,2014-12-20 12:16:00,
2014-12-20 04:21:00,52.9,52.9,28.88,West,270,0.0,0.0,100,0.04,,,0.49,WSDL version 470,2014-12-20 12:21:00,
2014-12-20 04:26:00,52.9,52.9,28.88,West,270,0.0,0.0,100,0.04,,,0.49,WSDL version 470,2014-12-20 12:26:00,
2014-12-20 04:31:00,52.9,52.9,28.88,West,270,0.0,0.0,100,0.04,,,0.49,WSDL version 470,2014-12-20 12:31:00,
2014-12-20 04:36:00,52.9,52.9,28.88,West,270,0.0,0.0,100,0.04,,,0.49,WSDL version 470,2014-12-20 12:36:00,
2014-12-20 04:41:00,52.9,52.9,28.88,West,270,0.0,0.0,100,0.04,,,0.49,WSDL version 470,2014-12-20 12:41:00,
2014-12-20 04:46:00,52.9,52.9,28.88,West,270,0.0,0.0,100,-99.99,,,-99.99,WSDL version 470,2014-12-20 12:46:00,
2014-12-20 04:51:00,52.9,52.9,28.88,West,270,0.0,0.0,100,-99.99,,,-99.99,WSDL version 470,2014-12-20 12:51:00,
2014-12-20 04:56:00,52.9,52.9,28.88,West,270,0.0,0.0,100,-99.99,,,-99.99,WSDL version 470,2014-12-20 12:56:00,
2014-12-20 05:01:00,52.9,52.9,28.88,West,270,0.0,0.0,100,0.00,,,0.49,WSDL version 470,2014-12-20 13:01:00,
2014-12-20 05:06:00,52.9,52.9,28.88,West,270,0.0,0.0,100,0.00,,,0.49,WSDL version 470,2014-12-20 13:06:00,
2014-12-20 05:11:00,52.9,52.9,28.88,West,270,0.0,0.0,100,-99.99,,,-99.99,WSDL version 470,2014-12-20 13:11:00,
2014-12-20 05:16:00,52.9,52.9,28.88,West,270,0.0,0.0,100,0.00,,,0.49,WSDL version 470,2014-12-20 13:16:00,
2014-12-20 05:21:00,52.9,52.9,28.88,West,270,0.0,0.0,100,0.00,,,0.49,WSDL version 470,2014-12-20 13:21:00,
2014-12-20 05:26:00,52.9,52.9,28.91,West,270,0.0,0.0,100,0.00,,,0.49,WSDL version 470,2014-12-20 13:26:00,
2014-12-20 05:31:00,52.9,52.9,28.91,West,270,0.0,0.0,100,0.00,,,0.49,WSDL version 470,2014-12-20 13:31:00,
2014-12-20 05:36:00,52.9,52.9,28.91,West,270,0.0,0.0,100,0.00,,,0.49,WSDL version 470,2014-12-20 13:36:00,
2014-12-20 05:41:00,52.9,52.9,28.91,West,270,0.0,0.0,100,0.00,,,0.49,WSDL version 470,2014-12-20 13:41:00,
2014-12-20 05:46:00,52.8,52.8,28.91,West,270,0.0,0.0,100,0.00,,,0.49,WSDL version 470,2014-12-20 13:46:00,
2014-12-20 05:51:00,52.8,52.8,28.91,West,270,0.0,0.0,100,0.00,,,0.49,WSDL version 470,2014-12-20 13:51:00,
2014-12-20 05:56:00,52.7,52.7,28.91,West,270,0.0,0.0,100,0.00,,,0.49,WSDL version 470,2014-12-20 13:56:00,
2014-12-20 06:01:00,52.7,52.7,28.91,West,270,0.0,0.0,100,0.00,,,0.49,WSDL version 470,2014-12-20 14:01:00,
2014-12-20 06:06:00,52.9,52.9,28.91,West,270,0.0,1.1,100,0.00,,,0.49,WSDL version 470,2014-12-20 14:06:00,
2014-12-20 06:11:00,52.9,52.9,28.91,West,270,0.0,1.1,100,0.00,,,0.49,WSDL version 470,2014-12-20 14:11:00,
2014-12-20 06:16:00,52.7,52.7,28.91,West,260,0.4,1.6,100,0.00,,,0.49,WSDL version 470,2014-12-20 14:16:00,
2014-12-20 06:21:00,52.7,52.7,28.91,NW,315,1.1,1.6,100,0.00,,,0.49,WSDL version 470,2014-12-20 14:21:00,
2014-12-20 06:26:00,52.8,52.8,28.91,NW,308,0.0,1.6,100,0.00,,,0.49,WSDL version 470,2014-12-20 14:26:00,
2014-12-20 06:31:00,52.9,52.9,28.91,SW,225,0.0,1.6,100,0.00,,,0.49,WSDL version 470,2014-12-20 14:31:00,
2014-12-20 06:36:00,52.9,52.9,28.91,SW,225,0.0,0.9,100,0.00,,,0.49,WSDL version 470,2014-12-20 14:36:00,
2014-12-20 06:41:00,52.7,52.7,28.91,SW,225,0.0,0.0,100,0.00,,,0.49,WSDL version 470,2014-12-20 14:41:00,
2014-12-20 06:46:00,52.7,52.7,28.91,SW,225,0.0,0.0,100,0.00,,,0.49,WSDL version 470,2014-12-20 14:46:00,
2014-12-20 06:51:00,52.5,52.5,28.91,SW,225,0.0,0.0,100,0.00,,,0.49,WSDL version 470,2014-12-20 14:51:00,
2014-12-20 06:56:00,52.5,52.5,28.91,SW,225,0.0,0.0,100,0.00,,,0.49,WSDL version 470,2014-12-20 14:56:00,
2014-12-20 07:01:00,52.3,52.3,28.91,SW,225,0.0,0.0,100,-99.99,,,-99.99,WSDL version 470,2014-12-20 15:01:00,
2014-12-20 07:06:00,52.3,52.3,28.91,SW,225,0.0,0.0,100,0.00,,,0.49,WSDL version 470,2014-12-20 15:06:00,
2014-12-20 07:11:00,52.3,52.3,28.91,SW,225,0.0,0.0,100,0.00,,,0.49,WSDL version 470,2014-12-20 15:11:00,
2014-12-20 07:16:00,52.3,52.3,28.91,SW,225,0.0,0.0,100,0.00,,,0.49,WSDL version 470,2014-12-20 15:16:00,
2014-12-20 07:21:00,52.3,52.3,28.91,SW,225,0.0,0.0,100,0.00,,,0.49,WSDL version 470,2014-12-20 15:21:00,
2014-12-20 07:26:00,52.3,52.3,28.91,SW,225,0.0,0.0,100,0.00,,,0.49,WSDL version 470,2014-12-20 15:26:00,
2014-12-20 07:31:00,52.3,52.3,28.91,SW,225,0.0,0.0,100,0.00,,,0.49,WSDL version 470,2014-12-20 15:31:00,
2014-12-20 07:36:00,52.5,52.5,28.91,SW,225,0.0,0.0,100,0.00,,,0.49,WSDL version 470,2014-12-20 15:36:00,
2014-12-20 07:41:00,52.5,52.5,28.91,SW,225,0.0,0.0,100,0.00,,,0.49,WSDL version 470,2014-12-20 15:41:00,
2014-12-20 07:46:00,52.6,52.6,28.91,SW,225,0.0,0.0,100,0.00,,,0.49,WSDL version 470,2014-12-20 15:46:00,
2014-12-20 07:51:00,52.7,52.7,28.91,SW,225,0.0,0.0,100,0.00,,,0.49,WSDL version 470,2014-12-20 15:51:00,
2014-12-20 07:56:00,52.7,52.7,28.91,SW,225,0.0,0.0,100,0.00,,,0.49,WSDL version 470,2014-12-20 15:56:00,
2014-12-20 08:01:00,52.7,52.7,28.91,SW,225,0.0,0.0,100,0.00,,,0.49,WSDL version 470,2014-12-20 16:01:00,
2014-12-20 08:06:00,52.7,52.7,28.91,SW,225,0.0,0.0,100,0.00,,,0.49,WSDL version 470,2014-12-20 16:06:00,
2014-12-20 08:11:00,52.7,52.7,28.91,SW,225,0.0,0.0,100,0.00,,,0.49,WSDL version 470,2014-12-20 16:11:00,
2014-12-20 08:16:00,52.7,52.7,28.91,SW,225,0.0,0.0,100,0.00,,,0.49,WSDL version 470,2014-12-20 16:16:00,
2014-12-20 08:21:00,52.7,52.7,28.91,SW,225,0.0,0.0,100,0.00,,,0.49,WSDL version 470,2014-12-20 16:21:00,
2014-12-20 08:26:00,52.7,52.7,28.94,SW,225,0.0,0.0,100,0.00,,,0.49,WSDL version 470,2014-12-20 16:26:00,
2014-12-20 08:31:00,52.7,52.7,28.94,SW,225,0.0,0.0,100,0.00,,,0.49,WSDL version 470,2014-12-20 16:31:00,
2014-12-20 08:36:00,52.7,52.7,28.94,SW,225,0.0,0.0,100,0.00,,,0.49,WSDL version 470,2014-12-20 16:36:00,
2014-12-20 08:41:00,52.7,52.7,28.97,SW,225,0.0,0.0,100,0.00,,,0.49,WSDL version 470,2014-12-20 16:41:00,
2014-12-20 08:46:00,52.8,52.8,28.97,SW,225,0.0,0.0,100,0.00,,,0.49,WSDL version 470,2014-12-20 16:46:00,
2014-12-20 08:51:00,52.9,52.9,28.97,SW,225,0.0,0.0,100,0.00,,,0.49,WSDL version 470,2014-12-20 16:51:00,
2014-12-20 08:56:00,53.0,53.0,28.97,SW,225,0.0,0.0,100,0.00,,,0.49,WSDL version 470,2014-12-20 16:56:00,
2014-12-20 09:01:00,53.2,53.2,28.97,SW,225,0.0,0.0,100,0.00,,,0.49,WSDL version 470,2014-12-20 17:01:00,
2014-12-20 09:06:00,53.3,53.3,28.97,SW,225,0.0,0.0,100,0.00,,,0.49,WSDL version 470,2014-12-20 17:06:00,
2014-12-20 09:11:00,53.6,53.6,28.97,NNW,338,0.4,1.1,100,-99.99,,,-99.99,WSDL version 470,2014-12-20 17:11:00,
2014-12-20 09:16:00,53.8,53.8,28.97,NNW,332,0.0,1.6,100,0.00,,,0.49,WSDL version 470,2014-12-20 17:16:00,
2014-12-20 09:21:00,53.7,53.7,28.97,NNW,338,0.0,1.6,100,-99.99,,,-99.99,WSDL version 470,2014-12-20 17:21:00,
2014-12-20 09:26:00,53.6,53.6,28.97,North,354,0.0,1.1,100,-99.99,,,-99.99,WSDL version 470,2014-12-20 17:26:00,
2014-12-20 09:31:00,53.7,53.7,28.97,NNE,23,0.0,0.0,100,0.00,,,0.49,WSDL version 470,2014-12-20 17:31:00,
2014-12-20 09:36:00,53.8,53.8,28.97,North,360,0.0,0.0,100,-99.99,,,-99.99,WSDL version 470,2014-12-20 17:36:00,
2014-12-20 09:41:00,54.0,54.0,28.97,NNW,338,0.0,0.0,100,-99.99,,,-99.99,WSDL version 470,2014-12-20 17:41:00,
2014-12-20 09:46:00,54.1,54.1,28.97,NNW,338,0.0,0.0,100,-99.99,,,-99.99,WSDL version 470,2014-12-20 17:46:00,
2014-12-20 09:51:00,54.2,54.2,28.97,East,90,0.0,1.1,100,-99.99,,,-99.99,WSDL version 470,2014-12-20 17:51:00,
2014-12-20 09:56:00,54.3,54.3,28.97,East,90,0.0,1.1,100,0.00,,,0.49,WSDL version 470,2014-12-20 17:56:00,
2014-12-20 10:01:00,54.4,54.3,28.97,East,90,0.0,0.0,100,-99.99,,,-99.99,WSDL version 470,2014-12-20 18:01:00,
2014-12-20 10:06:00,54.5,54.5,28.97,East,90,0.1,1.3,100,0.00,,,0.49,WSDL version 470,2014-12-20 18:06:00,
2014-12-20 10:11:00,54.5,54.5,28.97,East,90,0.0,1.3,100,0.00,,,0.49,WSDL version 470,2014-12-20 18:11:00,
2014-12-20 10:16:00,54.7,54.7,28.97,East,90,0.0,1.1,100,0.00,,,0.49,WSDL version 470,2014-12-20 18:16:00,
2014-12-20 10:21:00,54.9,54.9,28.97,ESE,113,0.5,1.3,100,0.00,,,0.49,WSDL version 470,2014-12-20 18:21:00,
2014-12-20 10:26:00,54.9,54.9,28.97,SE,135,0.0,2.2,100,0.00,,,0.49,WSDL version 470,2014-12-20 18:26:00,
2014-12-20 10:31:00,55.0,55.0,28.97,SE,135,0.0,2.2,100,0.00,,,0.49,WSDL version 470,2014-12-20 18:31:00,
2014-12-20 10:36:00,55.3,55.2,28.97,SE,135,0.0,0.0,100,0.00,,,0.49,WSDL version 470,2014-12-20 18:36:00,
2014-12-20 10:41:00,55.5,55.5,28.97,SE,135,0.2,2.5,100,-99.99,,,-99.99,WSDL version 470,2014-12-20 18:41:00,
2014-12-20 10:46:00,55.6,55.6,28.97,SE,135,0.0,2.5,100,0.00,,,0.49,WSDL version 470,2014-12-20 18:46:00,
2014-12-20 10:51:00,55.8,55.8,28.97,NE,45,0.0,1.1,100,0.00,,,0.49,WSDL version 470,2014-12-20 18:51:00,
2014-12-20 10:56:00,55.8,55.8,28.97,SW,230,0.0,1.1,100,0.00,,,0.49,WSDL version 470,2014-12-20 18:56:00,
2014-12-20 11:01:00,55.6,55.6,28.97,SE,135,0.0,1.3,100,0.00,,,0.49,WSDL version 470,2014-12-20 19:01:00,
2014-12-20 11:06:00,55.8,55.8,28.97,SE,132,0.4,2.2,100,0.05,,,0.54,WSDL version 470,2014-12-20 19:06:00,
2014-12-20 11:11:00,55.8,55.8,28.97,ESE,113,0.4,2.5,100,0.05,,,0.54,WSDL version 470,2014-12-20 19:11:00,
2014-12-20 11:16:00,55.9,55.9,28.97,ESE,110,0.0,2.5,100,0.05,,,0.54,WSDL version 470,2014-12-20 19:16:00,
2014-12-20 11:21:00,55.9,55.9,28.97,East,85,0.0,2.5,100,0.05,,,0.54,WSDL version 470,2014-12-20 19:21:00,
2014-12-20 11:26:00,56.0,56.0,28.97,NNE,31,0.0,2.5,100,0.05,,,0.54,WSDL version 470,2014-12-20 19:26:00,
2014-12-20 11:31:00,56.2,56.1,28.97,WNW,293,0.0,2.0,100,0.05,,,0.54,WSDL version 470,2014-12-20 19:31:00,
2014-12-20 11:36:00,56.3,56.3,28.97,NNW,338,0.0,0.0,100,0.05,,,0.54,WSDL version 470,2014-12-20 19:36:00,
2014-12-20 11:41:00,56.3,56.3,28.97,ESE,113,0.0,0.9,100,-99.99,,,-99.99,WSDL version 470,2014-12-20 19:41:00,
2014-12-20 11:46:00,56.3,56.3,28.97,NW,305,0.5,1.1,100,0.05,,,0.54,WSDL version 470,2014-12-20 19:46:00,
2014-12-20 11:51:00,56.5,56.5,28.97,NNW,333,0.7,2.7,100,0.05,,,0.54,WSDL version 470,2014-12-20 19:51:00,
2014-12-20 11:56:00,56.3,56.3,28.94,NNW,332,0.0,3.6,100,0.05,,,0.54,WSDL version 470,2014-12-20 19:56:00,
2014-12-20 12:01:00,56.3,56.3,28.94,NW,318,1.1,3.6,100,0.05,,,0.54,WSDL version 470,2014-12-20 20:01:00,
2014-12-20 12:06:00,56.8,56.8,28.94,North,3,0.5,2.5,100,0.00,,,0.54,WSDL version 470,2014-12-20 20:06:00,
2014-12-20 12:11:00,57.1,57.1,28.94,NW,315,0.0,2.5,100,0.00,,,0.54,WSDL version 470,2014-12-20 20:11:00,
2014-12-20 12:16:00,56.9,56.9,28.94,NW,315,0.0,1.1,100,-99.99,,,-99.99,WSDL version 470,2014-12-20 20:16:00,
2014-12-20 12:21:00,56.7,56.7,28.94,NW,315,0.0,1.1,100,0.00,,,0.54,WSDL version 470,2014-12-20 20:21:00,
2014-12-20 12:26:00,56.6,56.6,28.94,NNW,333,0.6,2.5,100,0.00,,,0.54,WSDL version 470,2014-12-20 20:26:00,
2014-12-20 12:31:00,56.4,56.4,28.94,NNW,343,1.0,2.5,100,0.00,,,0.54,WSDL version 470,2014-12-20 20:31:00,
2014-12-20 12:36:00,56.5,56.5,28.94,NNW,331,0.4,2.0,100,0.00,,,0.54,WSDL version 470,2014-12-20 20:36:00,
2014-12-20 12:41:00,56.6,56.6,28.94,WNW,293,0.0,1.6,100,0.00,,,0.54,WSDL version 470,2014-12-20 20:41:00,
2014-12-20 12:46:00,56.7,56.7,28.94,WNW,293,0.0,1.3,100,0.00,,,0.54,WSDL version 470,2014-12-20 20:46:00,
2014-12-20 12:51:00,56.7,56.7,28.94,ESE,104,0.7,1.6,100,0.00,,,0.54,WSDL version 470,2014-12-20 20:51:00,
2014-12-20 12:56:00,56.7,56.7,28.94,East,90,0.4,1.6,100,0.00,,,0.54,WSDL version 470,2014-12-20 20:56:00,
2014-12-20 13:01:00,56.5,56.5,28.94,NE,45,0.0,1.3,100,0.00,,,0.54,WSDL version 470,2014-12-20 21:01:00,
2014-12-20 13:06:00,56.6,56.6,28.94,NNW,338,0.0,2.5,100,0.00,,,0.54,WSDL version 470,2014-12-20 21:06:00,
2014-12-20 13:11:00,56.7,56.7,28.94,West,270,0.0,2.5,100,-99.99,,,-99.99,WSDL version 470,2014-12-20 21:11:00,
2014-12-20 13:16:00,56.8,56.8,28.94,ENE,70,0.8,2.5,100,0.00,,,0.54,WSDL version 470,2014-12-20 21:16:00,
2014-12-20 13:21:00,56.8,56.8,28.94,East,90,0.0,2.5,100,-99.99,,,-99.99,WSDL version 470,2014-12-20 21:21:00,
2014-12-20 13:26:00,56.8,56.7,28.94,East,90,0.5,2.7,100,0.00,,,0.54,WSDL version 470,2014-12-20 21:26:00,
2014-12-20 13:31:00,56.7,56.7,28.94,East,90,0.0,2.7,100,0.00,,,0.54,WSDL version 470,2014-12-20 21:31:00,
2014-12-20 13:36:00,56.7,56.7,28.94,West,265,0.0,1.3,100,0.00,,,0.54,WSDL version 470,2014-12-20 21:36:00,
2014-12-20 13:41:00,56.7,56.7,28.94,SSE,158,0.0,2.0,100,0.00,,,0.54,WSDL version 470,2014-12-20 21:41:00,
2014-12-20 13:46:00,56.7,56.7,28.94,SSE,158,0.0,2.0,100,0.00,,,0.54,WSDL version 470,2014-12-20 21:46:00,
2014-12-20 13:51:00,56.7,56.7,28.94,East,90,0.0,1.3,100,-99.99,,,-99.99,WSDL version 470,2014-12-20 21:51:00,
2014-12-20 13:56:00,56.8,56.8,28.94,ESE,113,0.0,2.0,100,0.00,,,0.54,WSDL version 470,2014-12-20 21:56:00,
2014-12-20 14:01:00,56.8,56.8,28.94,East,93,0.0,2.0,100,0.00,,,0.54,WSDL version 470,2014-12-20 22:01:00,
2014-12-20 14:06:00,56.8,56.8,28.94,NNW,338,0.0,0.9,100,0.00,,,0.54,WSDL version 470,2014-12-20 22:06:00,
2014-12-20 14:11:00,56.8,56.8,28.94,SE,135,0.5,2.0,100,0.00,,,0.54,WSDL version 470,2014-12-20 22:11:00,
2014-12-20 14:16:00,56.8,56.8,28.94,SE,135,0.0,2.0,100,0.00,,,0.54,WSDL version 470,2014-12-20 22:16:00,
2014-12-20 14:21:00,56.8,56.8,28.94,ESE,115,0.0,0.0,100,0.00,,,0.54,WSDL version 470,2014-12-20 22:21:00,
2014-12-20 14:26:00,56.8,56.8,28.94,ESE,103,0.0,1.6,100,-99.99,,,-99.99,WSDL version 470,2014-12-20 22:26:00,
2014-12-20 14:31:00,56.8,56.8,28.94,East,100,0.0,1.6,100,-99.99,,,-99.99,WSDL version 470,2014-12-20 22:31:00,
2014-12-20 14:36:00,56.8,56.8,28.94,East,95,0.0,2.5,100,-99.99,,,-99.99,WSDL version 470,2014-12-20 22:36:00,
2014-12-20 14:41:00,56.8,56.8,28.94,SE,135,0.5,2.5,100,-99.99,,,-99.99,WSDL version 470,2014-12-20 22:41:00,
2014-12-20 14:46:00,56.8,56.8,28.94,SE,135,0.0,1.6,100,-99.99,,,-99.99,WSDL version 470,2014-12-20 22:46:00,
2014-12-20 14:51:00,56.8,56.8,28.94,SE,135,0.0,0.0,100,-99.99,,,-99.99,WSDL version 470,2014-12-20 22:51:00,
2014-12-20 14:56:00,56.6,56.6,28.94,NNW,343,0.0,1.6,100,-99.99,,,-99.99,WSDL version 470,2014-12-20 22:56:00,
2014-12-20 15:01:00,56.5,56.4,28.94,NW,323,0.5,1.6,100,-99.99,,,-99.99,WSDL version 470,2014-12-20 23:01:00,
2014-12-20 15:06:00,56.3,56.3,28.94,NNW,346,0.0,1.3,100,-99.99,,,-99.99,WSDL version 470,2014-12-20 23:06:00,
2014-12-20 15:11:00,56.3,56.3,28.94,West,270,0.0,2.2,100,0.00,,,0.54,WSDL version 470,2014-12-20 23:11:00,
2014-12-20 15:16:00,56.3,56.3,28.94,North,8,0.0,2.2,100,0.00,,,0.54,WSDL version 470,2014-12-20 23:16:00,
2014-12-20 15:21:00,56.2,56.2,28.94,NNW,345,0.0,0.9,100,0.00,,,0.54,WSDL version 470,2014-12-20 23:21:00,
2014-12-20 15:26:00,56.2,56.1,28.97,NW,315,0.0,0.0,100,-99.99,,,-99.99,WSDL version 470,2014-12-20 23:26:00,
2014-12-20 15:31:00,56.3,56.3,28.97,NW,315,0.0,0.0,100,0.00,,,0.54,WSDL version 470,2014-12-20 23:31:00,
2014-12-20 15:36:00,56.3,56.3,28.97,NNE,18,0.0,0.0,100,0.00,,,0.54,WSDL version 470,2014-12-20 23:36:00,
2014-12-20 15:41:00,56.3,56.3,28.97,East,90,0.0,0.0,100,0.00,,,0.54,WSDL version 470,2014-12-20 23:41:00,
2014-12-20 15:46:00,56.3,56.3,28.97,East,90,0.0,0.0,100,0.00,,,0.54,WSDL version 470,2014-12-20 23:46:00,
2014-12-20 15:51:00,56.3,56.3,28.97,WNW,293,0.0,0.0,100,0.00,,,0.54,WSDL version 470,2014-12-20 23:51:00,
2014-12-20 15:56:00,56.3,56.3,28.97,WSW,255,0.0,1.1,100,-99.99,,,-99.99,WSDL version 470,2014-12-20 23:56:00,
2014-12-20 16:01:00,56.3,56.3,28.97,South,180,0.0,1.1,100,-99.99,,,-99.99,WSDL version 470,2014-12-21 00:01:00,
2014-12-20 16:06:00,56.3,56.3,28.97,South,180,0.0,0.9,100,-99.99,,,-99.99,WSDL version 470,2014-12-21 00:06:00,
2014-12-20 16:11:00,56.2,56.2,28.97,South,180,0.0,0.0,100,-99.99,,,-99.99,WSDL version 470,2014-12-21 00:11:00,
2014-12-20 16:16:00,56.1,56.1,28.97,South,180,0.0,0.0,100,-99.99,,,-99.99,WSDL version 470,2014-12-21 00:16:00,
2014-12-20 16:21:00,56.1,56.1,28.97,East,90,0.4,2.2,100,-99.99,,,-99.99,WSDL version 470,2014-12-21 00:21:00,
2014-12-20 16:26:00,56.1,56.1,28.97,East,90,0.0,2.2,100,-99.99,,,-99.99,WSDL version 470,2014-12-21 00:26:00,
2014-12-20 16:31:00,56.1,56.1,28.97,East,90,0.0,1.3,100,-99.99,,,-99.99,WSDL version 470,2014-12-21 00:31:00,
2014-12-20 16:36:00,56.0,56.0,28.97,East,90,0.0,0.0,100,-99.99,,,-99.99,WSDL version 470,2014-12-21 00:36:00,
2014-12-20 16:41:00,55.9,55.9,28.97,East,90,0.0,0.0,100,-99.99,,,-99.99,WSDL version 470,2014-12-21 00:41:00,
2014-12-20 16:46:00,55.9,55.9,28.97,East,90,0.0,0.0,100,-99.99,,,-99.99,WSDL version 470,2014-12-21 00:46:00,
2014-12-20 16:51:00,55.9,55.9,28.97,East,90,0.0,0.0,100,-99.99,,,-99.99,WSDL version 470,2014-12-21 00:51:00,
2014-12-20 16:56:00,55.8,55.8,28.97,East,90,0.0,0.0,100,-99.99,,,-99.99,WSDL version 470,2014-12-21 00:56:00,
2014-12-20 17:01:00,55.8,55.8,28.97,East,90,0.0,0.0,100,-99.99,,,-99.99,WSDL version 470,2014-12-21 01:01:00,
2014-12-20 17:06:00,55.6,55.6,28.97,East,90,0.0,0.0,100,-99.99,,,-99.99,WSDL version 470,2014-12-21 01:06:00,
2014-12-20 17:11:00,55.6,55.6,28.97,East,90,0.0,0.0,100,-99.99,,,-99.99,WSDL version 470,2014-12-21 01:11:00,
2014-12-20 17:16:00,55.6,55.6,28.97,East,90,0.0,0.0,100,-99.99,,,-99.99,WSDL version 470,2014-12-21 01:16:00,
2014-12-20 17:21:00,55.5,55.5,28.97,East,90,0.0,0.0,100,-99.99,,,-99.99,WSDL version 470,2014-12-21 01:21:00,
2014-12-20 17:26:00,55.4,55.4,29.00,East,90,0.0,0.0,100,-99.99,,,-99.99,WSDL version 470,2014-12-21 01:26:00,
2014-12-20 17:31:00,55.4,55.4,29.00,East,90,0.0,0.0,100,-99.99,,,-99.99,WSDL version 470,2014-12-21 01:31:00,
2014-12-20 17:36:00,55.4,55.4,29.00,East,90,0.0,0.0,100,-99.99,,,-99.99,WSDL version 470,2014-12-21 01:36:00,
2014-12-20 17:41:00,55.4,55.4,29.00,North,350,0.0,0.0,100,-99.99,,,-99.99,WSDL version 470,2014-12-21 01:41:00,
2014-12-20 17:46:00,55.4,55.4,29.00,NW,315,0.0,0.0,100,-99.99,,,-99.99,WSDL version 470,2014-12-21 01:46:00,
2014-12-20 17:51:00,55.4,55.4,29.00,NW,315,0.0,0.0,100,-99.99,,,-99.99,WSDL version 470,2014-12-21 01:51:00,
2014-12-20 17:56:00,55.4,55.4,29.00,NW,315,0.0,0.0,100,-99.99,,,-99.99,WSDL version 470,2014-12-21 01:56:00,
2014-12-20 18:01:00,55.3,55.3,29.00,NW,309,0.0,0.0,100,-99.99,,,-99.99,WSDL version 470,2014-12-21 02:01:00,
2014-12-20 18:06:00,55.2,55.2,29.00,WNW,293,0.0,0.0,100,-99.99,,,-99.99,WSDL version 470,2014-12-21 02:06:00,
2014-12-20 18:11:00,55.2,55.2,28.97,WNW,293,0.0,0.0,100,-99.99,,,-99.99,WSDL version 470,2014-12-21 02:11:00,
2014-12-20 18:16:00,55.2,55.2,28.97,WNW,293,0.0,0.0,100,-99.99,,,-99.99,WSDL version 470,2014-12-21 02:16:00,
2014-12-20 18:21:00,55.2,55.2,28.97,WNW,293,0.0,0.0,100,-99.99,,,-99.99,WSDL version 470,2014-12-21 02:21:00,
2014-12-20 18:26:00,55.2,55.2,29.00,WNW,293,0.0,0.0,100,-99.99,,,-99.99,WSDL version 470,2014-12-21 02:26:00,
2014-12-20 18:31:00,55.2,55.2,29.00,WNW,293,0.0,0.0,100,-99.99,,,-99.99,WSDL version 470,2014-12-21 02:31:00,
2014-12-20 18:36:00,55.2,55.2,29.00,WNW,293,0.0,0.0,100,-99.99,,,-99.99,WSDL version 470,2014-12-21 02:36:00,
2014-12-20 18:41:00,55.2,55.2,29.00,WNW,293,0.0,0.0,100,-99.99,,,-99.99,WSDL version 470,2014-12-21 02:41:00,
2014-12-20 18:46:00,55.2,55.2,29.00,WNW,293,0.0,0.0,100,-99.99,,,-99.99,WSDL version 470,2014-12-21 02:46:00,
2014-12-20 18:51:00,55.2,55.2,29.00,WNW,293,0.0,0.0,100,-99.99,,,-99.99,WSDL version 470,2014-12-21 02:51:00,
2014-12-20 18:56:00,55.2,55.2,29.00,NNW,328,0.0,1.3,100,-99.99,,,-99.99,WSDL version 470,2014-12-21 02:56:00,
2014-12-20 19:01:00,55.0,55.0,29.00,NNW,338,0.0,1.3,100,-99.99,,,-99.99,WSDL version 470,2014-12-21 03:01:00,
2014-12-20 19:06:00,55.0,55.0,29.00,NNW,338,0.0,0.0,100,-99.99,,,-99.99,WSDL version 470,2014-12-21 03:06:00,
2014-12-20 19:11:00,55.0,55.0,29.00,NW,315,0.0,0.0,100,-99.99,,,-99.99,WSDL version 470,2014-12-21 03:11:00,
2014-12-20 19:16:00,55.0,55.0,29.00,NW,315,0.0,0.0,100,-99.99,,,-99.99,WSDL version 470,2014-12-21 03:16:00,
2014-12-20 19:21:00,55.0,55.0,29.00,NW,315,0.0,0.0,100,-99.99,,,-99.99,WSDL version 470,2014-12-21 03:21:00,
2014-12-20 19:26:00,55.0,55.0,29.00,NW,315,0.0,0.0,100,-99.99,,,-99.99,WSDL version 470,2014-12-21 03:26:00,
2014-12-20 19:31:00,55.0,55.0,29.00,NW,315,0.0,0.0,100,-99.99,,,-99.99,WSDL version 470,2014-12-21 03:31:00,
2014-12-20 19:36:00,55.0,55.0,29.00,NW,315,0.0,0.0,100,-99.99,,,-99.99,WSDL version 470,2014-12-21 03:36:00,
2014-12-20 19:41:00,55.0,55.0,29.00,NW,315,0.0,0.0,100,-99.99,,,-99.99,WSDL version 470,2014-12-21 03:41:00,
2014-12-20 19:46:00,55.0,55.0,29.00,NW,315,0.0,0.0,100,-99.99,,,-99.99,WSDL version 470,2014-12-21 03:46:00,
2014-12-20 19:51:00,54.9,54.9,29.00,NW,315,0.0,0.0,100,-99.99,,,-99.99,WSDL version 470,2014-12-21 03:51:00,
2014-12-20 19:56:00,54.9,54.9,29.03,NW,315,0.0,0.0,100,-99.99,,,-99.99,WSDL version 470,2014-12-21 03:56:00,
2014-12-20 20:01:00,54.9,54.9,29.03,NW,315,0.0,0.0,100,-99.99,,,-99.99,WSDL version 470,2014-12-21 04:01:00,
2014-12-20 20:06:00,54.9,54.9,29.03,NW,315,0.0,0.0,100,-99.99,,,-99.99,WSDL version 470,2014-12-21 04:06:00,
2014-12-20 20:11:00,54.9,54.9,29.00,NW,315,0.0,0.0,100,-99.99,,,-99.99,WSDL version 470,2014-12-21 04:11:00,
2014-12-20 20:16:00,54.9,54.9,29.00,NW,315,0.0,0.0,100,-99.99,,,-99.99,WSDL version 470,2014-12-21 04:16:00,
2014-12-20 20:21:00,54.9,54.9,29.00,NW,315,0.0,0.0,100,-99.99,,,-99.99,WSDL version 470,2014-12-21 04:21:00,
2014-12-20 20:26:00,54.9,54.9,29.00,NW,315,0.0,0.0,100,-99.99,,,-99.99,WSDL version 470,2014-12-21 04:26:00,